sensor_id;sensor_type;location;lat;lon;timestamp;P1;durP1;ratioP1;P2;durP2;ratioP2
84903;SDS011;75168;52.096;5.214;2024-02-26T00:01:41;6.18;;;4.35;;
84903;SDS011;75168;52.096;5.214;2024-02-26T00:04:09;6.90;;;4.47;;
84903;SDS011;75168;52.096;5.214;2024-02-26T00:06:34;7.57;;;4.07;;
84903;SDS011;75168;52.096;5.214;2024-02-26T00:09:00;6.60;;;3.90;;
84903;SDS011;75168;52.096;5.214;2024-02-26T00:11:27;6.20;;;3.95;;
84903;SDS011;75168;52.096;5.214;2024-02-26T00:13:53;5.97;;;3.80;;
84903;SDS011;75168;52.096;5.214;2024-02-26T00:16:18;5.05;;;3.20;;
84903;SDS011;75168;52.096;5.214;2024-02-26T00:18:44;6.13;;;4.10;;
84903;SDS011;75168;52.096;5.214;2024-02-26T00:21:09;7.13;;;4.25;;
84903;SDS011;75168;52.096;5.214;2024-02-26T00:23:34;6.75;;;4.53;;
84903;SDS011;75168;52.096;5.214;2024-02-26T00:26:00;10.80;;;4.72;;
84903;SDS011;75168;52.096;5.214;2024-02-26T00:28:25;6.40;;;3.55;;
84903;SDS011;75168;52.096;5.214;2024-02-26T00:30:52;7.32;;;4.22;;
84903;SDS011;75168;52.096;5.214;2024-02-26T00:33:21;8.60;;;4.45;;
84903;SDS011;75168;52.096;5.214;2024-02-26T00:35:46;6.63;;;4.38;;
84903;SDS011;75168;52.096;5.214;2024-02-26T00:38:12;7.22;;;4.55;;
84903;SDS011;75168;52.096;5.214;2024-02-26T00:40:37;7.68;;;4.57;;
84903;SDS011;75168;52.096;5.214;2024-02-26T00:43:03;5.90;;;4.07;;
84903;SDS011;75168;52.096;5.214;2024-02-26T00:45:28;7.32;;;4.22;;
84903;SDS011;75168;52.096;5.214;2024-02-26T00:47:54;7.13;;;4.47;;
84903;SDS011;75168;52.096;5.214;2024-02-26T00:50:20;9.07;;;4.88;;
84903;SDS011;75168;52.096;5.214;2024-02-26T00:52:46;6.35;;;3.88;;
84903;SDS011;75168;52.096;5.214;2024-02-26T00:55:12;7.43;;;5.00;;
84903;SDS011;75168;52.096;5.214;2024-02-26T00:57:37;8.48;;;5.22;;
84903;SDS011;75168;52.096;5.214;2024-02-26T01:00:03;7.70;;;5.20;;
84903;SDS011;75168;52.096;5.214;2024-02-26T01:02:29;6.88;;;3.83;;
84903;SDS011;75168;52.096;5.214;2024-02-26T01:04:55;6.28;;;4.70;;
84903;SDS011;75168;52.096;5.214;2024-02-26T01:07:20;8.98;;;5.25;;
84903;SDS011;75168;52.096;5.214;2024-02-26T01:09:46;8.77;;;5.45;;
84903;SDS011;75168;52.096;5.214;2024-02-26T01:12:11;9.10;;;5.40;;
84903;SDS011;75168;52.096;5.214;2024-02-26T01:14:37;7.03;;;5.28;;
84903;SDS011;75168;52.096;5.214;2024-02-26T01:17:03;7.38;;;5.40;;
84903;SDS011;75168;52.096;5.214;2024-02-26T01:19:29;8.07;;;5.57;;
84903;SDS011;75168;52.096;5.214;2024-02-26T01:21:54;9.02;;;5.97;;
84903;SDS011;75168;52.096;5.214;2024-02-26T01:24:20;6.82;;;4.32;;
84903;SDS011;75168;52.096;5.214;2024-02-26T01:26:48;7.40;;;5.20;;
84903;SDS011;75168;52.096;5.214;2024-02-26T01:29:14;8.68;;;5.72;;
84903;SDS011;75168;52.096;5.214;2024-02-26T01:31:39;8.32;;;5.70;;
84903;SDS011;75168;52.096;5.214;2024-02-26T01:34:05;8.45;;;5.68;;
84903;SDS011;75168;52.096;5.214;2024-02-26T01:36:30;7.18;;;5.15;;
84903;SDS011;75168;52.096;5.214;2024-02-26T01:38:56;7.35;;;5.10;;
84903;SDS011;75168;52.096;5.214;2024-02-26T01:41:21;7.38;;;5.75;;
84903;SDS011;75168;52.096;5.214;2024-02-26T01:43:47;7.47;;;5.82;;
84903;SDS011;75168;52.096;5.214;2024-02-26T01:46:12;7.25;;;4.97;;
84903;SDS011;75168;52.096;5.214;2024-02-26T01:48:43;8.13;;;5.60;;
84903;SDS011;75168;52.096;5.214;2024-02-26T01:51:11;8.48;;;4.38;;
84903;SDS011;75168;52.096;5.214;2024-02-26T01:53:39;8.57;;;5.57;;
84903;SDS011;75168;52.096;5.214;2024-02-26T01:56:05;8.95;;;5.68;;
84903;SDS011;75168;52.096;5.214;2024-02-26T01:58:31;9.10;;;5.57;;
84903;SDS011;75168;52.096;5.214;2024-02-26T02:00:57;9.10;;;5.55;;
84903;SDS011;75168;52.096;5.214;2024-02-26T02:03:24;8.77;;;5.22;;
84903;SDS011;75168;52.096;5.214;2024-02-26T02:05:50;8.25;;;5.95;;
84903;SDS011;75168;52.096;5.214;2024-02-26T02:08:15;8.57;;;4.80;;
84903;SDS011;75168;52.096;5.214;2024-02-26T02:10:44;7.28;;;4.50;;
84903;SDS011;75168;52.096;5.214;2024-02-26T02:13:13;7.72;;;5.85;;
84903;SDS011;75168;52.096;5.214;2024-02-26T02:15:39;9.13;;;5.15;;
84903;SDS011;75168;52.096;5.214;2024-02-26T02:18:05;7.88;;;4.85;;
84903;SDS011;75168;52.096;5.214;2024-02-26T02:20:35;8.35;;;5.78;;
84903;SDS011;75168;52.096;5.214;2024-02-26T02:23:01;8.27;;;4.45;;
84903;SDS011;75168;52.096;5.214;2024-02-26T02:25:27;7.78;;;4.30;;
84903;SDS011;75168;52.096;5.214;2024-02-26T02:27:55;7.07;;;4.20;;
84903;SDS011;75168;52.096;5.214;2024-02-26T02:30:24;9.80;;;5.80;;
84903;SDS011;75168;52.096;5.214;2024-02-26T02:32:51;8.07;;;4.88;;
84903;SDS011;75168;52.096;5.214;2024-02-26T02:35:17;9.40;;;6.13;;
84903;SDS011;75168;52.096;5.214;2024-02-26T02:37:43;8.80;;;5.90;;
84903;SDS011;75168;52.096;5.214;2024-02-26T02:40:08;8.65;;;4.50;;
84903;SDS011;75168;52.096;5.214;2024-02-26T02:42:34;8.40;;;5.35;;
84903;SDS011;75168;52.096;5.214;2024-02-26T02:44:59;8.63;;;5.18;;
84903;SDS011;75168;52.096;5.214;2024-02-26T02:47:25;9.27;;;5.00;;
84903;SDS011;75168;52.096;5.214;2024-02-26T02:49:50;9.40;;;5.80;;
84903;SDS011;75168;52.096;5.214;2024-02-26T02:52:16;8.88;;;5.88;;
84903;SDS011;75168;52.096;5.214;2024-02-26T02:54:44;7.75;;;4.75;;
84903;SDS011;75168;52.096;5.214;2024-02-26T02:57:12;9.15;;;5.95;;
84903;SDS011;75168;52.096;5.214;2024-02-26T02:59:37;9.32;;;5.88;;
84903;SDS011;75168;52.096;5.214;2024-02-26T03:02:03;9.65;;;5.47;;
84903;SDS011;75168;52.096;5.214;2024-02-26T03:04:31;10.90;;;6.30;;
84903;SDS011;75168;52.096;5.214;2024-02-26T03:06:57;9.00;;;5.28;;
84903;SDS011;75168;52.096;5.214;2024-02-26T03:09:23;8.32;;;4.88;;
84903;SDS011;75168;52.096;5.214;2024-02-26T03:11:48;11.15;;;6.30;;
84903;SDS011;75168;52.096;5.214;2024-02-26T03:14:14;9.15;;;4.75;;
84903;SDS011;75168;52.096;5.214;2024-02-26T03:16:40;8.73;;;4.53;;
84903;SDS011;75168;52.096;5.214;2024-02-26T03:19:05;9.95;;;5.78;;
84903;SDS011;75168;52.096;5.214;2024-02-26T03:21:31;9.90;;;5.82;;
84903;SDS011;75168;52.096;5.214;2024-02-26T03:23:56;8.27;;;5.97;;
84903;SDS011;75168;52.096;5.214;2024-02-26T03:26:22;8.85;;;4.82;;
84903;SDS011;75168;52.096;5.214;2024-02-26T03:28:48;10.73;;;5.40;;
84903;SDS011;75168;52.096;5.214;2024-02-26T03:31:13;9.00;;;5.88;;
84903;SDS011;75168;52.096;5.214;2024-02-26T03:33:39;10.15;;;6.60;;
84903;SDS011;75168;52.096;5.214;2024-02-26T03:36:05;9.50;;;5.45;;
84903;SDS011;75168;52.096;5.214;2024-02-26T03:38:32;10.95;;;6.45;;
84903;SDS011;75168;52.096;5.214;2024-02-26T03:40:58;9.60;;;6.38;;
84903;SDS011;75168;52.096;5.214;2024-02-26T03:43:23;10.25;;;7.18;;
84903;SDS011;75168;52.096;5.214;2024-02-26T03:45:49;11.30;;;6.65;;
84903;SDS011;75168;52.096;5.214;2024-02-26T03:48:14;10.68;;;6.82;;
84903;SDS011;75168;52.096;5.214;2024-02-26T03:50:40;10.68;;;6.70;;
84903;SDS011;75168;52.096;5.214;2024-02-26T03:53:05;10.93;;;6.38;;
84903;SDS011;75168;52.096;5.214;2024-02-26T03:55:31;11.30;;;7.00;;
84903;SDS011;75168;52.096;5.214;2024-02-26T03:57:56;11.57;;;6.10;;
84903;SDS011;75168;52.096;5.214;2024-02-26T04:00:22;10.48;;;6.97;;
84903;SDS011;75168;52.096;5.214;2024-02-26T04:02:47;11.40;;;6.70;;
84903;SDS011;75168;52.096;5.214;2024-02-26T04:05:13;11.30;;;7.00;;
84903;SDS011;75168;52.096;5.214;2024-02-26T04:07:39;10.52;;;5.30;;
84903;SDS011;75168;52.096;5.214;2024-02-26T04:10:14;11.77;;;7.60;;
84903;SDS011;75168;52.096;5.214;2024-02-26T04:12:40;12.98;;;8.27;;
84903;SDS011;75168;52.096;5.214;2024-02-26T04:15:10;12.63;;;6.95;;
84903;SDS011;75168;52.096;5.214;2024-02-26T04:17:36;12.40;;;6.95;;
84903;SDS011;75168;52.096;5.214;2024-02-26T04:20:03;11.38;;;7.40;;
84903;SDS011;75168;52.096;5.214;2024-02-26T04:22:32;11.75;;;7.38;;
84903;SDS011;75168;52.096;5.214;2024-02-26T04:24:58;11.70;;;6.00;;
84903;SDS011;75168;52.096;5.214;2024-02-26T04:27:23;12.18;;;7.57;;
84903;SDS011;75168;52.096;5.214;2024-02-26T04:29:49;12.63;;;6.03;;
84903;SDS011;75168;52.096;5.214;2024-02-26T04:32:14;11.48;;;7.15;;
84903;SDS011;75168;52.096;5.214;2024-02-26T04:34:40;11.25;;;6.82;;
84903;SDS011;75168;52.096;5.214;2024-02-26T04:37:06;11.93;;;7.57;;
84903;SDS011;75168;52.096;5.214;2024-02-26T04:39:32;11.38;;;6.68;;
84903;SDS011;75168;52.096;5.214;2024-02-26T04:41:57;12.68;;;7.60;;
84903;SDS011;75168;52.096;5.214;2024-02-26T04:44:23;11.93;;;7.20;;
84903;SDS011;75168;52.096;5.214;2024-02-26T04:46:48;12.45;;;6.20;;
84903;SDS011;75168;52.096;5.214;2024-02-26T04:49:14;15.20;;;8.50;;
84903;SDS011;75168;52.096;5.214;2024-02-26T04:51:39;11.88;;;6.93;;
84903;SDS011;75168;52.096;5.214;2024-02-26T04:54:05;14.52;;;7.75;;
84903;SDS011;75168;52.096;5.214;2024-02-26T04:56:30;15.23;;;8.52;;
84903;SDS011;75168;52.096;5.214;2024-02-26T04:58:56;16.13;;;8.25;;
84903;SDS011;75168;52.096;5.214;2024-02-26T05:01:21;13.55;;;7.90;;
84903;SDS011;75168;52.096;5.214;2024-02-26T05:03:47;12.32;;;5.88;;
84903;SDS011;75168;52.096;5.214;2024-02-26T05:06:12;13.18;;;6.97;;
84903;SDS011;75168;52.096;5.214;2024-02-26T05:08:38;16.17;;;8.20;;
84903;SDS011;75168;52.096;5.214;2024-02-26T05:11:04;14.85;;;8.02;;
84903;SDS011;75168;52.096;5.214;2024-02-26T05:13:29;14.57;;;8.15;;
84903;SDS011;75168;52.096;5.214;2024-02-26T05:15:55;14.80;;;8.55;;
84903;SDS011;75168;52.096;5.214;2024-02-26T05:18:21;18.95;;;8.85;;
84903;SDS011;75168;52.096;5.214;2024-02-26T05:20:47;14.30;;;8.25;;
84903;SDS011;75168;52.096;5.214;2024-02-26T05:23:12;14.60;;;8.57;;
84903;SDS011;75168;52.096;5.214;2024-02-26T05:25:38;13.52;;;6.97;;
84903;SDS011;75168;52.096;5.214;2024-02-26T05:28:04;17.75;;;9.82;;
84903;SDS011;75168;52.096;5.214;2024-02-26T05:30:29;14.40;;;8.05;;
84903;SDS011;75168;52.096;5.214;2024-02-26T05:32:55;14.32;;;7.45;;
84903;SDS011;75168;52.096;5.214;2024-02-26T05:35:20;15.20;;;8.93;;
84903;SDS011;75168;52.096;5.214;2024-02-26T05:37:46;16.65;;;9.15;;
84903;SDS011;75168;52.096;5.214;2024-02-26T05:40:14;15.48;;;9.25;;
84903;SDS011;75168;52.096;5.214;2024-02-26T05:42:40;15.68;;;9.25;;
84903;SDS011;75168;52.096;5.214;2024-02-26T05:45:05;15.57;;;8.82;;
84903;SDS011;75168;52.096;5.214;2024-02-26T05:47:35;14.30;;;8.95;;
84903;SDS011;75168;52.096;5.214;2024-02-26T05:50:01;12.98;;;7.05;;
84903;SDS011;75168;52.096;5.214;2024-02-26T05:52:27;17.10;;;9.18;;
84903;SDS011;75168;52.096;5.214;2024-02-26T05:54:54;17.88;;;9.93;;
84903;SDS011;75168;52.096;5.214;2024-02-26T05:57:20;16.52;;;9.20;;
84903;SDS011;75168;52.096;5.214;2024-02-26T05:59:45;17.17;;;8.30;;
84903;SDS011;75168;52.096;5.214;2024-02-26T06:02:11;16.33;;;9.13;;
84903;SDS011;75168;52.096;5.214;2024-02-26T06:04:37;19.20;;;9.90;;
84903;SDS011;75168;52.096;5.214;2024-02-26T06:07:02;16.85;;;8.60;;
84903;SDS011;75168;52.096;5.214;2024-02-26T06:09:28;17.58;;;9.73;;
84903;SDS011;75168;52.096;5.214;2024-02-26T06:11:53;17.58;;;9.07;;
84903;SDS011;75168;52.096;5.214;2024-02-26T06:14:19;17.02;;;9.25;;
84903;SDS011;75168;52.096;5.214;2024-02-26T06:16:45;17.77;;;8.63;;
84903;SDS011;75168;52.096;5.214;2024-02-26T06:19:13;18.92;;;9.25;;
84903;SDS011;75168;52.096;5.214;2024-02-26T06:21:39;18.05;;;9.02;;
84903;SDS011;75168;52.096;5.214;2024-02-26T06:24:04;19.17;;;9.75;;
84903;SDS011;75168;52.096;5.214;2024-02-26T06:26:30;17.00;;;8.52;;
84903;SDS011;75168;52.096;5.214;2024-02-26T06:28:55;19.20;;;9.15;;
84903;SDS011;75168;52.096;5.214;2024-02-26T06:31:21;18.42;;;8.98;;
84903;SDS011;75168;52.096;5.214;2024-02-26T06:33:48;18.20;;;9.40;;
84903;SDS011;75168;52.096;5.214;2024-02-26T06:36:15;19.90;;;10.38;;
84903;SDS011;75168;52.096;5.214;2024-02-26T06:38:44;19.23;;;9.90;;
84903;SDS011;75168;52.096;5.214;2024-02-26T06:41:09;20.30;;;10.68;;
84903;SDS011;75168;52.096;5.214;2024-02-26T06:43:39;20.60;;;10.25;;
84903;SDS011;75168;52.096;5.214;2024-02-26T06:46:05;22.58;;;10.35;;
84903;SDS011;75168;52.096;5.214;2024-02-26T06:48:31;23.30;;;10.75;;
84903;SDS011;75168;52.096;5.214;2024-02-26T06:50:56;22.65;;;11.02;;
84903;SDS011;75168;52.096;5.214;2024-02-26T06:53:22;23.30;;;11.18;;
84903;SDS011;75168;52.096;5.214;2024-02-26T06:55:47;26.75;;;12.05;;
84903;SDS011;75168;52.096;5.214;2024-02-26T06:58:15;28.60;;;13.55;;
84903;SDS011;75168;52.096;5.214;2024-02-26T07:00:41;27.48;;;12.65;;
84903;SDS011;75168;52.096;5.214;2024-02-26T07:03:11;25.83;;;11.48;;
84903;SDS011;75168;52.096;5.214;2024-02-26T07:05:38;28.80;;;13.32;;
84903;SDS011;75168;52.096;5.214;2024-02-26T07:08:04;25.55;;;11.55;;
84903;SDS011;75168;52.096;5.214;2024-02-26T07:10:30;26.70;;;10.90;;
84903;SDS011;75168;52.096;5.214;2024-02-26T07:12:55;28.85;;;12.90;;
84903;SDS011;75168;52.096;5.214;2024-02-26T07:15:21;31.48;;;13.48;;
84903;SDS011;75168;52.096;5.214;2024-02-26T07:17:49;34.72;;;15.00;;
84903;SDS011;75168;52.096;5.214;2024-02-26T07:20:14;30.88;;;13.35;;
84903;SDS011;75168;52.096;5.214;2024-02-26T07:22:40;35.60;;;16.20;;
84903;SDS011;75168;52.096;5.214;2024-02-26T07:25:07;34.05;;;14.15;;
84903;SDS011;75168;52.096;5.214;2024-02-26T07:27:34;30.55;;;13.00;;
84903;SDS011;75168;52.096;5.214;2024-02-26T07:29:59;35.15;;;15.48;;
84903;SDS011;75168;52.096;5.214;2024-02-26T07:32:25;38.33;;;16.40;;
84903;SDS011;75168;52.096;5.214;2024-02-26T07:34:50;34.72;;;17.00;;
84903;SDS011;75168;52.096;5.214;2024-02-26T07:37:16;37.85;;;18.15;;
84903;SDS011;75168;52.096;5.214;2024-02-26T07:39:42;35.20;;;16.77;;
84903;SDS011;75168;52.096;5.214;2024-02-26T07:42:07;35.20;;;16.42;;
84903;SDS011;75168;52.096;5.214;2024-02-26T07:44:35;36.20;;;15.88;;
84903;SDS011;75168;52.096;5.214;2024-02-26T07:47:01;38.72;;;17.85;;
84903;SDS011;75168;52.096;5.214;2024-02-26T07:49:28;37.75;;;16.67;;
84903;SDS011;75168;52.096;5.214;2024-02-26T07:51:53;37.92;;;16.58;;
84903;SDS011;75168;52.096;5.214;2024-02-26T07:54:22;33.25;;;14.27;;
84903;SDS011;75168;52.096;5.214;2024-02-26T07:56:49;36.13;;;15.65;;
84903;SDS011;75168;52.096;5.214;2024-02-26T07:59:15;30.20;;;14.68;;
84903;SDS011;75168;52.096;5.214;2024-02-26T08:01:41;35.88;;;16.35;;
84903;SDS011;75168;52.096;5.214;2024-02-26T08:04:14;33.55;;;16.88;;
84903;SDS011;75168;52.096;5.214;2024-02-26T08:06:39;34.72;;;15.80;;
84903;SDS011;75168;52.096;5.214;2024-02-26T08:09:04;27.70;;;13.52;;
84903;SDS011;75168;52.096;5.214;2024-02-26T08:11:30;31.98;;;15.95;;
84903;SDS011;75168;52.096;5.214;2024-02-26T08:14:07;31.63;;;16.30;;
84903;SDS011;75168;52.096;5.214;2024-02-26T08:16:35;25.30;;;13.43;;
84903;SDS011;75168;52.096;5.214;2024-02-26T08:19:26;26.15;;;12.10;;
84903;SDS011;75168;52.096;5.214;2024-02-26T08:22:07;24.13;;;12.73;;
84903;SDS011;75168;52.096;5.214;2024-02-26T08:27:17;26.27;;;13.80;;
84903;SDS011;75168;52.096;5.214;2024-02-26T08:29:43;21.98;;;10.50;;
84903;SDS011;75168;52.096;5.214;2024-02-26T08:32:14;19.98;;;10.68;;
84903;SDS011;75168;52.096;5.214;2024-02-26T08:34:43;19.35;;;10.93;;
84903;SDS011;75168;52.096;5.214;2024-02-26T08:39:45;20.20;;;10.70;;
84903;SDS011;75168;52.096;5.214;2024-02-26T08:42:11;18.40;;;10.55;;
84903;SDS011;75168;52.096;5.214;2024-02-26T08:44:53;17.10;;;8.63;;
84903;SDS011;75168;52.096;5.214;2024-02-26T08:47:19;16.83;;;9.13;;
84903;SDS011;75168;52.096;5.214;2024-02-26T08:49:45;17.05;;;8.48;;
84903;SDS011;75168;52.096;5.214;2024-02-26T08:52:11;15.25;;;7.20;;
84903;SDS011;75168;52.096;5.214;2024-02-26T08:54:39;15.80;;;8.75;;
84903;SDS011;75168;52.096;5.214;2024-02-26T08:57:05;17.77;;;8.27;;
84903;SDS011;75168;52.096;5.214;2024-02-26T08:59:31;17.58;;;9.80;;
84903;SDS011;75168;52.096;5.214;2024-02-26T09:01:56;17.42;;;9.02;;
84903;SDS011;75168;52.096;5.214;2024-02-26T09:04:22;15.88;;;8.30;;
84903;SDS011;75168;52.096;5.214;2024-02-26T09:06:48;14.52;;;8.35;;
84903;SDS011;75168;52.096;5.214;2024-02-26T09:09:14;18.60;;;9.98;;
84903;SDS011;75168;52.096;5.214;2024-02-26T09:11:40;17.00;;;8.32;;
84903;SDS011;75168;52.096;5.214;2024-02-26T09:14:05;14.82;;;7.18;;
84903;SDS011;75168;52.096;5.214;2024-02-26T09:16:34;14.77;;;7.63;;
84903;SDS011;75168;52.096;5.214;2024-02-26T09:18:59;15.38;;;8.35;;
84903;SDS011;75168;52.096;5.214;2024-02-26T09:21:25;15.45;;;8.07;;
84903;SDS011;75168;52.096;5.214;2024-02-26T09:23:51;13.25;;;7.47;;
84903;SDS011;75168;52.096;5.214;2024-02-26T09:26:17;12.15;;;5.75;;
84903;SDS011;75168;52.096;5.214;2024-02-26T09:28:44;14.02;;;6.95;;
84903;SDS011;75168;52.096;5.214;2024-02-26T09:31:10;12.30;;;6.57;;
84903;SDS011;75168;52.096;5.214;2024-02-26T09:33:35;14.32;;;8.65;;
84903;SDS011;75168;52.096;5.214;2024-02-26T09:47:53;11.55;;;6.30;;
84903;SDS011;75168;52.096;5.214;2024-02-26T09:50:20;13.85;;;6.95;;
84903;SDS011;75168;52.096;5.214;2024-02-26T09:52:51;12.85;;;6.70;;
84903;SDS011;75168;52.096;5.214;2024-02-26T09:55:19;13.20;;;7.88;;
84903;SDS011;75168;52.096;5.214;2024-02-26T09:57:45;13.23;;;7.38;;
84903;SDS011;75168;52.096;5.214;2024-02-26T10:00:17;14.02;;;7.65;;
84903;SDS011;75168;52.096;5.214;2024-02-26T10:02:52;13.90;;;7.00;;
84903;SDS011;75168;52.096;5.214;2024-02-26T10:05:22;12.15;;;6.45;;
84903;SDS011;75168;52.096;5.214;2024-02-26T10:07:49;16.42;;;7.72;;
84903;SDS011;75168;52.096;5.214;2024-02-26T10:10:18;10.75;;;5.22;;
84903;SDS011;75168;52.096;5.214;2024-02-26T10:12:44;12.57;;;5.85;;
84903;SDS011;75168;52.096;5.214;2024-02-26T10:15:10;14.25;;;7.15;;
84903;SDS011;75168;52.096;5.214;2024-02-26T10:17:35;13.15;;;5.65;;
84903;SDS011;75168;52.096;5.214;2024-02-26T10:20:13;13.30;;;7.45;;
84903;SDS011;75168;52.096;5.214;2024-02-26T10:22:44;12.45;;;6.97;;
84903;SDS011;75168;52.096;5.214;2024-02-26T10:25:10;12.80;;;6.50;;
84903;SDS011;75168;52.096;5.214;2024-02-26T10:27:36;14.07;;;7.25;;
84903;SDS011;75168;52.096;5.214;2024-02-26T10:30:02;13.15;;;7.05;;
84903;SDS011;75168;52.096;5.214;2024-02-26T10:36:26;13.38;;;5.80;;
84903;SDS011;75168;52.096;5.214;2024-02-26T10:38:52;14.27;;;7.88;;
84903;SDS011;75168;52.096;5.214;2024-02-26T10:41:24;9.25;;;5.45;;
84903;SDS011;75168;52.096;5.214;2024-02-26T10:43:50;14.23;;;6.30;;
84903;SDS011;75168;52.096;5.214;2024-02-26T10:46:17;12.18;;;6.90;;
84903;SDS011;75168;52.096;5.214;2024-02-26T10:48:49;12.25;;;6.35;;
84903;SDS011;75168;52.096;5.214;2024-02-26T10:51:18;14.40;;;7.85;;
84903;SDS011;75168;52.096;5.214;2024-02-26T10:53:49;14.10;;;7.25;;
84903;SDS011;75168;52.096;5.214;2024-02-26T10:56:21;12.52;;;6.80;;
84903;SDS011;75168;52.096;5.214;2024-02-26T10:58:51;13.90;;;7.00;;
84903;SDS011;75168;52.096;5.214;2024-02-26T11:01:17;15.73;;;7.80;;
84903;SDS011;75168;52.096;5.214;2024-02-26T11:03:45;13.13;;;6.35;;
84903;SDS011;75168;52.096;5.214;2024-02-26T11:06:12;8.95;;;4.97;;
84903;SDS011;75168;52.096;5.214;2024-02-26T11:08:43;11.65;;;5.57;;
84903;SDS011;75168;52.096;5.214;2024-02-26T11:11:09;11.63;;;6.63;;
84903;SDS011;75168;52.096;5.214;2024-02-26T11:13:40;11.20;;;6.15;;
84903;SDS011;75168;52.096;5.214;2024-02-26T11:16:10;13.77;;;5.82;;
84903;SDS011;75168;52.096;5.214;2024-02-26T11:18:37;12.18;;;6.80;;
84903;SDS011;75168;52.096;5.214;2024-02-26T11:21:16;12.23;;;6.75;;
84903;SDS011;75168;52.096;5.214;2024-02-26T11:23:47;12.52;;;6.72;;
84903;SDS011;75168;52.096;5.214;2024-02-26T11:26:14;12.25;;;7.50;;
84903;SDS011;75168;52.096;5.214;2024-02-26T11:28:42;12.68;;;6.80;;
84903;SDS011;75168;52.096;5.214;2024-02-26T11:31:19;15.40;;;7.40;;
84903;SDS011;75168;52.096;5.214;2024-02-26T11:33:52;12.35;;;6.55;;
84903;SDS011;75168;52.096;5.214;2024-02-26T11:36:25;16.38;;;6.85;;
84903;SDS011;75168;52.096;5.214;2024-02-26T11:38:55;14.57;;;7.05;;
84903;SDS011;75168;52.096;5.214;2024-02-26T11:41:20;11.82;;;6.13;;
84903;SDS011;75168;52.096;5.214;2024-02-26T11:43:50;10.52;;;5.97;;
84903;SDS011;75168;52.096;5.214;2024-02-26T11:46:30;11.80;;;6.80;;
84903;SDS011;75168;52.096;5.214;2024-02-26T11:49:01;14.38;;;7.07;;
84903;SDS011;75168;52.096;5.214;2024-02-26T11:51:32;14.57;;;7.55;;
84903;SDS011;75168;52.096;5.214;2024-02-26T11:54:06;15.18;;;6.55;;
84903;SDS011;75168;52.096;5.214;2024-02-26T11:56:34;10.80;;;5.75;;
84903;SDS011;75168;52.096;5.214;2024-02-26T11:59:11;12.10;;;6.30;;
84903;SDS011;75168;52.096;5.214;2024-02-26T12:05:11;8.48;;;5.40;;
84903;SDS011;75168;52.096;5.214;2024-02-26T12:07:52;12.30;;;6.40;;
84903;SDS011;75168;52.096;5.214;2024-02-26T12:10:30;11.48;;;5.40;;
84903;SDS011;75168;52.096;5.214;2024-02-26T12:13:16;12.70;;;6.35;;
84903;SDS011;75168;52.096;5.214;2024-02-26T12:16:05;10.40;;;6.15;;
84903;SDS011;75168;52.096;5.214;2024-02-26T12:18:30;13.48;;;7.35;;
84903;SDS011;75168;52.096;5.214;2024-02-26T12:20:59;12.20;;;6.55;;
84903;SDS011;75168;52.096;5.214;2024-02-26T12:23:31;10.80;;;6.25;;
84903;SDS011;75168;52.096;5.214;2024-02-26T12:26:00;11.02;;;6.63;;
84903;SDS011;75168;52.096;5.214;2024-02-26T12:28:29;12.38;;;6.72;;
84903;SDS011;75168;52.096;5.214;2024-02-26T12:30:55;11.23;;;6.97;;
84903;SDS011;75168;52.096;5.214;2024-02-26T12:33:21;11.43;;;7.00;;
84903;SDS011;75168;52.096;5.214;2024-02-26T12:35:47;12.15;;;7.15;;
84903;SDS011;75168;52.096;5.214;2024-02-26T12:38:16;14.18;;;6.38;;
84903;SDS011;75168;52.096;5.214;2024-02-26T12:40:41;10.77;;;5.78;;
84903;SDS011;75168;52.096;5.214;2024-02-26T12:43:10;11.68;;;6.55;;
84903;SDS011;75168;52.096;5.214;2024-02-26T12:45:41;9.43;;;5.50;;
84903;SDS011;75168;52.096;5.214;2024-02-26T12:48:12;10.93;;;5.72;;
84903;SDS011;75168;52.096;5.214;2024-02-26T12:50:38;9.75;;;5.00;;
84903;SDS011;75168;52.096;5.214;2024-02-26T12:53:04;8.48;;;4.60;;
84903;SDS011;75168;52.096;5.214;2024-02-26T12:55:30;12.32;;;6.90;;
84903;SDS011;75168;52.096;5.214;2024-02-26T12:57:59;10.98;;;6.03;;
84903;SDS011;75168;52.096;5.214;2024-02-26T13:00:26;11.00;;;5.43;;
84903;SDS011;75168;52.096;5.214;2024-02-26T13:02:53;13.40;;;7.47;;
84903;SDS011;75168;52.096;5.214;2024-02-26T13:05:20;11.70;;;5.70;;
84903;SDS011;75168;52.096;5.214;2024-02-26T13:07:49;9.60;;;4.90;;
84903;SDS011;75168;52.096;5.214;2024-02-26T13:10:20;10.95;;;6.13;;
84903;SDS011;75168;52.096;5.214;2024-02-26T13:12:47;13.52;;;6.13;;
84903;SDS011;75168;52.096;5.214;2024-02-26T13:15:18;9.77;;;4.88;;
84903;SDS011;75168;52.096;5.214;2024-02-26T13:17:47;12.15;;;6.75;;
84903;SDS011;75168;52.096;5.214;2024-02-26T13:20:24;9.50;;;4.78;;
84903;SDS011;75168;52.096;5.214;2024-02-26T13:23:03;10.40;;;6.07;;
84903;SDS011;75168;52.096;5.214;2024-02-26T13:25:33;10.77;;;5.40;;
84903;SDS011;75168;52.096;5.214;2024-02-26T13:28:07;10.18;;;5.80;;
84903;SDS011;75168;52.096;5.214;2024-02-26T13:30:41;9.77;;;5.85;;
84903;SDS011;75168;52.096;5.214;2024-02-26T13:33:15;9.68;;;6.03;;
84903;SDS011;75168;52.096;5.214;2024-02-26T13:35:40;8.80;;;5.25;;
84903;SDS011;75168;52.096;5.214;2024-02-26T13:38:06;10.90;;;6.22;;
84903;SDS011;75168;52.096;5.214;2024-02-26T13:40:32;10.20;;;5.72;;
84903;SDS011;75168;52.096;5.214;2024-02-26T13:42:58;8.93;;;5.00;;
84903;SDS011;75168;52.096;5.214;2024-02-26T13:45:23;10.40;;;5.90;;
84903;SDS011;75168;52.096;5.214;2024-02-26T13:48:07;9.70;;;5.72;;
84903;SDS011;75168;52.096;5.214;2024-02-26T13:50:35;10.15;;;5.30;;
84903;SDS011;75168;52.096;5.214;2024-02-26T13:53:00;9.20;;;5.88;;
84903;SDS011;75168;52.096;5.214;2024-02-26T13:55:26;7.97;;;4.80;;
84903;SDS011;75168;52.096;5.214;2024-02-26T13:57:56;9.52;;;5.43;;
84903;SDS011;75168;52.096;5.214;2024-02-26T14:00:22;9.95;;;5.90;;
84903;SDS011;75168;52.096;5.214;2024-02-26T14:02:49;8.32;;;4.15;;
84903;SDS011;75168;52.096;5.214;2024-02-26T14:05:14;8.95;;;5.80;;
84903;SDS011;75168;52.096;5.214;2024-02-26T14:07:40;8.85;;;5.65;;
84903;SDS011;75168;52.096;5.214;2024-02-26T14:10:06;8.60;;;4.40;;
84903;SDS011;75168;52.096;5.214;2024-02-26T14:12:32;9.48;;;5.30;;
84903;SDS011;75168;52.096;5.214;2024-02-26T14:15:15;8.45;;;5.60;;
84903;SDS011;75168;52.096;5.214;2024-02-26T14:17:40;10.85;;;5.78;;
84903;SDS011;75168;52.096;5.214;2024-02-26T14:20:08;10.27;;;5.32;;
84903;SDS011;75168;52.096;5.214;2024-02-26T14:22:34;9.23;;;5.28;;
84903;SDS011;75168;52.096;5.214;2024-02-26T14:24:59;7.95;;;5.15;;
84903;SDS011;75168;52.096;5.214;2024-02-26T14:27:25;11.50;;;5.90;;
84903;SDS011;75168;52.096;5.214;2024-02-26T14:29:50;7.25;;;4.95;;
84903;SDS011;75168;52.096;5.214;2024-02-26T14:32:16;9.68;;;5.70;;
84903;SDS011;75168;52.096;5.214;2024-02-26T14:34:50;12.10;;;6.38;;
84903;SDS011;75168;52.096;5.214;2024-02-26T14:37:16;7.15;;;3.80;;
84903;SDS011;75168;52.096;5.214;2024-02-26T14:39:48;9.48;;;5.18;;
84903;SDS011;75168;52.096;5.214;2024-02-26T14:42:18;8.20;;;4.55;;
84903;SDS011;75168;52.096;5.214;2024-02-26T14:44:44;8.93;;;5.22;;
84903;SDS011;75168;52.096;5.214;2024-02-26T14:47:09;9.00;;;5.38;;
84903;SDS011;75168;52.096;5.214;2024-02-26T14:49:35;9.52;;;4.55;;
84903;SDS011;75168;52.096;5.214;2024-02-26T14:52:01;10.13;;;5.07;;
84903;SDS011;75168;52.096;5.214;2024-02-26T14:54:31;7.32;;;3.65;;
84903;SDS011;75168;52.096;5.214;2024-02-26T14:57:02;7.40;;;3.22;;
84903;SDS011;75168;52.096;5.214;2024-02-26T14:59:34;6.05;;;3.25;;
84903;SDS011;75168;52.096;5.214;2024-02-26T15:02:01;8.18;;;4.82;;
84903;SDS011;75168;52.096;5.214;2024-02-26T15:04:27;6.50;;;3.30;;